sensor_id;sensor_type;location;lat;lon;timestamp;P1;durP1;ratioP1;P2;durP2;ratioP2
60354;SDS011;46198;51.464;-0.066;2024-03-25T00:00:14;8.70;;;4.17;;
60354;SDS011;46198;51.464;-0.066;2024-03-25T00:02:44;11.00;;;3.67;;
60354;SDS011;46198;51.464;-0.066;2024-03-25T00:05:10;15.13;;;5.00;;
60354;SDS011;46198;51.464;-0.066;2024-03-25T00:07:40;10.97;;;3.90;;
60354;SDS011;46198;51.464;-0.066;2024-03-25T00:10:08;10.73;;;4.40;;
60354;SDS011;46198;51.464;-0.066;2024-03-25T00:12:35;10.60;;;4.40;;
60354;SDS011;46198;51.464;-0.066;2024-03-25T00:15:01;7.10;;;3.93;;
60354;SDS011;46198;51.464;-0.066;2024-03-25T00:17:30;11.03;;;4.00;;
60354;SDS011;46198;51.464;-0.066;2024-03-25T00:19:56;6.67;;;3.90;;
60354;SDS011;46198;51.464;-0.066;2024-03-25T00:22:23;7.13;;;3.97;;
60354;SDS011;46198;51.464;-0.066;2024-03-25T00:24:51;10.40;;;4.83;;
60354;SDS011;46198;51.464;-0.066;2024-03-25T00:27:20;12.33;;;4.40;;
60354;SDS011;46198;51.464;-0.066;2024-03-25T00:29:46;9.57;;;3.87;;
60354;SDS011;46198;51.464;-0.066;2024-03-25T00:32:14;9.77;;;3.87;;
60354;SDS011;46198;51.464;-0.066;2024-03-25T00:34:40;9.27;;;3.90;;
60354;SDS011;46198;51.464;-0.066;2024-03-25T00:37:07;11.60;;;3.97;;
60354;SDS011;46198;51.464;-0.066;2024-03-25T00:39:34;14.10;;;4.80;;
60354;SDS011;46198;51.464;-0.066;2024-03-25T00:42:01;8.40;;;3.57;;
60354;SDS011;46198;51.464;-0.066;2024-03-25T00:44:30;9.63;;;4.10;;
60354;SDS011;46198;51.464;-0.066;2024-03-25T00:46:57;12.60;;;3.70;;
60354;SDS011;46198;51.464;-0.066;2024-03-25T00:49:23;11.87;;;4.10;;
60354;SDS011;46198;51.464;-0.066;2024-03-25T00:51:51;13.37;;;4.23;;
60354;SDS011;46198;51.464;-0.066;2024-03-25T00:54:18;8.70;;;4.13;;
60354;SDS011;46198;51.464;-0.066;2024-03-25T00:56:48;9.17;;;3.83;;
60354;SDS011;46198;51.464;-0.066;2024-03-25T00:59:15;6.97;;;3.72;;
60354;SDS011;46198;51.464;-0.066;2024-03-25T01:01:44;9.90;;;3.40;;
60354;SDS011;46198;51.464;-0.066;2024-03-25T01:04:13;12.07;;;4.25;;
60354;SDS011;46198;51.464;-0.066;2024-03-25T01:06:41;14.63;;;4.30;;
60354;SDS011;46198;51.464;-0.066;2024-03-25T01:09:10;14.97;;;4.37;;
60354;SDS011;46198;51.464;-0.066;2024-03-25T01:11:39;7.17;;;3.90;;
60354;SDS011;46198;51.464;-0.066;2024-03-25T01:14:06;8.50;;;3.63;;
60354;SDS011;46198;51.464;-0.066;2024-03-25T01:16:34;9.97;;;4.90;;
60354;SDS011;46198;51.464;-0.066;2024-03-25T01:19:01;9.37;;;3.93;;
60354;SDS011;46198;51.464;-0.066;2024-03-25T01:21:29;10.63;;;4.43;;
60354;SDS011;46198;51.464;-0.066;2024-03-25T01:23:56;8.63;;;3.93;;
60354;SDS011;46198;51.464;-0.066;2024-03-25T01:26:26;6.38;;;3.80;;
60354;SDS011;46198;51.464;-0.066;2024-03-25T01:28:53;15.03;;;4.43;;
60354;SDS011;46198;51.464;-0.066;2024-03-25T01:31:20;7.97;;;3.83;;
60354;SDS011;46198;51.464;-0.066;2024-03-25T01:33:46;16.70;;;4.20;;
60354;SDS011;46198;51.464;-0.066;2024-03-25T01:36:15;11.53;;;4.57;;
60354;SDS011;46198;51.464;-0.066;2024-03-25T01:38:43;12.77;;;4.60;;
60354;SDS011;46198;51.464;-0.066;2024-03-25T01:41:11;12.27;;;4.73;;
60354;SDS011;46198;51.464;-0.066;2024-03-25T01:43:38;9.13;;;4.27;;
60354;SDS011;46198;51.464;-0.066;2024-03-25T01:46:05;7.37;;;4.10;;
60354;SDS011;46198;51.464;-0.066;2024-03-25T01:48:33;7.30;;;3.90;;
60354;SDS011;46198;51.464;-0.066;2024-03-25T01:51:04;12.68;;;4.10;;
60354;SDS011;46198;51.464;-0.066;2024-03-25T01:53:32;10.23;;;4.83;;
60354;SDS011;46198;51.464;-0.066;2024-03-25T01:56:00;10.17;;;5.30;;
60354;SDS011;46198;51.464;-0.066;2024-03-25T01:58:28;13.07;;;4.50;;
60354;SDS011;46198;51.464;-0.066;2024-03-25T02:00:56;16.47;;;4.83;;
60354;SDS011;46198;51.464;-0.066;2024-03-25T02:03:25;8.60;;;4.23;;
60354;SDS011;46198;51.464;-0.066;2024-03-25T02:05:52;7.20;;;4.10;;
60354;SDS011;46198;51.464;-0.066;2024-03-25T02:08:22;11.93;;;4.13;;
60354;SDS011;46198;51.464;-0.066;2024-03-25T02:10:52;11.13;;;4.50;;
60354;SDS011;46198;51.464;-0.066;2024-03-25T02:13:20;11.60;;;4.40;;
60354;SDS011;46198;51.464;-0.066;2024-03-25T02:15:48;7.60;;;4.27;;
60354;SDS011;46198;51.464;-0.066;2024-03-25T02:18:16;9.47;;;4.20;;
60354;SDS011;46198;51.464;-0.066;2024-03-25T02:20:47;8.43;;;4.05;;
60354;SDS011;46198;51.464;-0.066;2024-03-25T02:23:14;9.93;;;4.13;;
60354;SDS011;46198;51.464;-0.066;2024-03-25T02:25:42;9.13;;;3.83;;
60354;SDS011;46198;51.464;-0.066;2024-03-25T02:28:10;10.57;;;4.10;;
60354;SDS011;46198;51.464;-0.066;2024-03-25T02:30:37;8.23;;;3.97;;
60354;SDS011;46198;51.464;-0.066;2024-03-25T02:33:06;8.97;;;4.03;;
60354;SDS011;46198;51.464;-0.066;2024-03-25T02:35:35;13.57;;;3.77;;
60354;SDS011;46198;51.464;-0.066;2024-03-25T02:38:04;7.70;;;3.30;;
60354;SDS011;46198;51.464;-0.066;2024-03-25T02:40:32;7.83;;;3.37;;
60354;SDS011;46198;51.464;-0.066;2024-03-25T02:42:59;11.17;;;3.87;;
60354;SDS011;46198;51.464;-0.066;2024-03-25T02:45:27;7.17;;;4.17;;
60354;SDS011;46198;51.464;-0.066;2024-03-25T02:47:54;11.57;;;4.60;;
60354;SDS011;46198;51.464;-0.066;2024-03-25T02:50:22;9.00;;;3.67;;
60354;SDS011;46198;51.464;-0.066;2024-03-25T02:52:48;10.23;;;3.40;;
60354;SDS011;46198;51.464;-0.066;2024-03-25T02:55:15;9.57;;;3.67;;
60354;SDS011;46198;51.464;-0.066;2024-03-25T02:57:41;11.10;;;3.90;;
60354;SDS011;46198;51.464;-0.066;2024-03-25T03:00:09;13.50;;;3.90;;
60354;SDS011;46198;51.464;-0.066;2024-03-25T03:02:37;7.33;;;3.60;;
60354;SDS011;46198;51.464;-0.066;2024-03-25T03:05:08;11.47;;;4.40;;
60354;SDS011;46198;51.464;-0.066;2024-03-25T03:07:34;7.67;;;3.10;;
60354;SDS011;46198;51.464;-0.066;2024-03-25T03:10:02;7.50;;;3.50;;
60354;SDS011;46198;51.464;-0.066;2024-03-25T03:12:28;10.47;;;4.70;;
60354;SDS011;46198;51.464;-0.066;2024-03-25T03:14:58;6.15;;;3.00;;
60354;SDS011;46198;51.464;-0.066;2024-03-25T03:17:24;7.10;;;3.30;;
60354;SDS011;46198;51.464;-0.066;2024-03-25T03:19:56;6.90;;;2.43;;
60354;SDS011;46198;51.464;-0.066;2024-03-25T03:22:22;5.57;;;2.28;;
60354;SDS011;46198;51.464;-0.066;2024-03-25T03:24:49;4.93;;;2.60;;
60354;SDS011;46198;51.464;-0.066;2024-03-25T03:27:16;10.47;;;3.03;;
60354;SDS011;46198;51.464;-0.066;2024-03-25T03:29:44;10.47;;;3.53;;
60354;SDS011;46198;51.464;-0.066;2024-03-25T03:32:10;9.50;;;3.10;;
60354;SDS011;46198;51.464;-0.066;2024-03-25T03:34:37;7.47;;;2.43;;
60354;SDS011;46198;51.464;-0.066;2024-03-25T03:37:05;10.47;;;3.30;;
60354;SDS011;46198;51.464;-0.066;2024-03-25T03:39:32;8.47;;;2.80;;
60354;SDS011;46198;51.464;-0.066;2024-03-25T03:41:59;6.47;;;2.80;;
60354;SDS011;46198;51.464;-0.066;2024-03-25T03:44:26;8.43;;;3.40;;
60354;SDS011;46198;51.464;-0.066;2024-03-25T03:46:52;11.03;;;2.73;;
60354;SDS011;46198;51.464;-0.066;2024-03-25T03:49:20;5.83;;;2.80;;
60354;SDS011;46198;51.464;-0.066;2024-03-25T03:51:46;7.80;;;3.37;;
60354;SDS011;46198;51.464;-0.066;2024-03-25T03:54:14;8.40;;;3.00;;
60354;SDS011;46198;51.464;-0.066;2024-03-25T03:56:41;11.30;;;2.90;;
60354;SDS011;46198;51.464;-0.066;2024-03-25T03:59:08;11.53;;;3.60;;
60354;SDS011;46198;51.464;-0.066;2024-03-25T04:01:34;9.23;;;4.27;;
60354;SDS011;46198;51.464;-0.066;2024-03-25T04:04:02;8.70;;;3.37;;
60354;SDS011;46198;51.464;-0.066;2024-03-25T04:06:34;9.43;;;2.73;;
60354;SDS011;46198;51.464;-0.066;2024-03-25T04:09:01;11.07;;;2.90;;
60354;SDS011;46198;51.464;-0.066;2024-03-25T04:11:30;8.70;;;2.93;;
60354;SDS011;46198;51.464;-0.066;2024-03-25T04:13:57;9.20;;;2.83;;
60354;SDS011;46198;51.464;-0.066;2024-03-25T04:16:24;8.23;;;3.23;;
60354;SDS011;46198;51.464;-0.066;2024-03-25T04:18:51;10.63;;;3.60;;
60354;SDS011;46198;51.464;-0.066;2024-03-25T04:21:17;12.53;;;3.10;;
60354;SDS011;46198;51.464;-0.066;2024-03-25T04:23:44;8.53;;;3.00;;
60354;SDS011;46198;51.464;-0.066;2024-03-25T04:26:10;10.87;;;3.43;;
60354;SDS011;46198;51.464;-0.066;2024-03-25T04:28:40;5.60;;;2.83;;
60354;SDS011;46198;51.464;-0.066;2024-03-25T04:31:07;9.80;;;3.13;;
60354;SDS011;46198;51.464;-0.066;2024-03-25T04:33:35;11.47;;;3.47;;
60354;SDS011;46198;51.464;-0.066;2024-03-25T04:36:02;11.53;;;3.33;;
60354;SDS011;46198;51.464;-0.066;2024-03-25T04:38:29;7.47;;;2.87;;
60354;SDS011;46198;51.464;-0.066;2024-03-25T04:40:56;8.33;;;3.20;;
60354;SDS011;46198;51.464;-0.066;2024-03-25T04:43:22;9.37;;;3.17;;
60354;SDS011;46198;51.464;-0.066;2024-03-25T04:45:50;13.23;;;4.03;;
60354;SDS011;46198;51.464;-0.066;2024-03-25T04:48:16;8.20;;;3.73;;
60354;SDS011;46198;51.464;-0.066;2024-03-25T04:50:42;8.20;;;3.03;;
60354;SDS011;46198;51.464;-0.066;2024-03-25T04:53:08;12.27;;;3.90;;
60354;SDS011;46198;51.464;-0.066;2024-03-25T04:55:34;9.77;;;3.20;;
60354;SDS011;46198;51.464;-0.066;2024-03-25T04:58:01;14.40;;;3.23;;
60354;SDS011;46198;51.464;-0.066;2024-03-25T05:00:27;9.00;;;3.60;;
60354;SDS011;46198;51.464;-0.066;2024-03-25T05:02:54;10.93;;;4.00;;
60354;SDS011;46198;51.464;-0.066;2024-03-25T05:05:21;13.57;;;3.60;;
60354;SDS011;46198;51.464;-0.066;2024-03-25T05:07:48;12.00;;;3.40;;
60354;SDS011;46198;51.464;-0.066;2024-03-25T05:10:14;12.47;;;3.80;;
60354;SDS011;46198;51.464;-0.066;2024-03-25T05:12:40;10.03;;;4.43;;
60354;SDS011;46198;51.464;-0.066;2024-03-25T05:15:07;11.47;;;3.80;;
60354;SDS011;46198;51.464;-0.066;2024-03-25T05:17:33;9.80;;;3.77;;
60354;SDS011;46198;51.464;-0.066;2024-03-25T05:20:01;11.93;;;3.50;;
60354;SDS011;46198;51.464;-0.066;2024-03-25T05:22:29;9.13;;;3.83;;
60354;SDS011;46198;51.464;-0.066;2024-03-25T05:24:56;12.03;;;3.40;;
60354;SDS011;46198;51.464;-0.066;2024-03-25T05:27:22;13.80;;;3.57;;
60354;SDS011;46198;51.464;-0.066;2024-03-25T05:29:48;7.03;;;3.17;;
60354;SDS011;46198;51.464;-0.066;2024-03-25T05:32:15;10.87;;;3.33;;
60354;SDS011;46198;51.464;-0.066;2024-03-25T05:34:44;11.37;;;3.73;;
60354;SDS011;46198;51.464;-0.066;2024-03-25T05:37:13;13.67;;;3.50;;
60354;SDS011;46198;51.464;-0.066;2024-03-25T05:39:40;9.30;;;3.37;;
60354;SDS011;46198;51.464;-0.066;2024-03-25T05:42:06;16.67;;;4.27;;
60354;SDS011;46198;51.464;-0.066;2024-03-25T05:44:33;14.83;;;3.97;;
60354;SDS011;46198;51.464;-0.066;2024-03-25T05:46:59;13.13;;;4.13;;
60354;SDS011;46198;51.464;-0.066;2024-03-25T05:49:25;12.03;;;3.90;;
60354;SDS011;46198;51.464;-0.066;2024-03-25T05:51:51;10.90;;;4.00;;
60354;SDS011;46198;51.464;-0.066;2024-03-25T05:54:19;10.13;;;3.70;;
60354;SDS011;46198;51.464;-0.066;2024-03-25T05:56:45;12.47;;;3.90;;
60354;SDS011;46198;51.464;-0.066;2024-03-25T05:59:11;10.83;;;3.70;;
60354;SDS011;46198;51.464;-0.066;2024-03-25T06:01:38;12.53;;;4.00;;
60354;SDS011;46198;51.464;-0.066;2024-03-25T06:04:04;15.13;;;4.60;;
60354;SDS011;46198;51.464;-0.066;2024-03-25T06:06:30;10.33;;;4.00;;
60354;SDS011;46198;51.464;-0.066;2024-03-25T06:08:57;20.33;;;4.13;;
60354;SDS011;46198;51.464;-0.066;2024-03-25T06:11:24;9.83;;;4.70;;
60354;SDS011;46198;51.464;-0.066;2024-03-25T06:13:50;11.43;;;4.27;;
60354;SDS011;46198;51.464;-0.066;2024-03-25T06:16:17;14.83;;;3.67;;
60354;SDS011;46198;51.464;-0.066;2024-03-25T06:18:43;8.40;;;3.60;;
60354;SDS011;46198;51.464;-0.066;2024-03-25T06:21:09;11.13;;;3.80;;
60354;SDS011;46198;51.464;-0.066;2024-03-25T06:23:37;10.63;;;4.10;;
60354;SDS011;46198;51.464;-0.066;2024-03-25T06:26:03;15.27;;;4.00;;
60354;SDS011;46198;51.464;-0.066;2024-03-25T06:28:31;14.07;;;3.67;;
60354;SDS011;46198;51.464;-0.066;2024-03-25T06:30:57;13.60;;;3.90;;
60354;SDS011;46198;51.464;-0.066;2024-03-25T06:33:42;11.83;;;4.03;;
60354;SDS011;46198;51.464;-0.066;2024-03-25T06:36:26;11.03;;;3.73;;
60354;SDS011;46198;51.464;-0.066;2024-03-25T06:38:52;10.97;;;3.77;;
60354;SDS011;46198;51.464;-0.066;2024-03-25T06:41:19;13.63;;;4.00;;
60354;SDS011;46198;51.464;-0.066;2024-03-25T06:43:47;15.23;;;5.30;;
60354;SDS011;46198;51.464;-0.066;2024-03-25T06:46:13;12.83;;;3.93;;
60354;SDS011;46198;51.464;-0.066;2024-03-25T06:48:40;11.17;;;3.60;;
60354;SDS011;46198;51.464;-0.066;2024-03-25T06:51:07;11.83;;;3.70;;
60354;SDS011;46198;51.464;-0.066;2024-03-25T06:53:33;18.30;;;4.17;;
60354;SDS011;46198;51.464;-0.066;2024-03-25T06:55:59;9.63;;;3.70;;
60354;SDS011;46198;51.464;-0.066;2024-03-25T06:58:26;12.37;;;3.77;;
60354;SDS011;46198;51.464;-0.066;2024-03-25T07:01:03;14.53;;;3.63;;
60354;SDS011;46198;51.464;-0.066;2024-03-25T07:03:30;15.20;;;4.53;;
60354;SDS011;46198;51.464;-0.066;2024-03-25T07:05:56;12.50;;;3.60;;
60354;SDS011;46198;51.464;-0.066;2024-03-25T07:08:23;10.37;;;3.63;;
60354;SDS011;46198;51.464;-0.066;2024-03-25T07:10:49;15.83;;;3.57;;
60354;SDS011;46198;51.464;-0.066;2024-03-25T07:13:15;11.47;;;3.67;;
60354;SDS011;46198;51.464;-0.066;2024-03-25T07:15:42;10.40;;;3.27;;
60354;SDS011;46198;51.464;-0.066;2024-03-25T07:18:10;11.80;;;3.93;;
60354;SDS011;46198;51.464;-0.066;2024-03-25T07:20:36;12.70;;;3.20;;
60354;SDS011;46198;51.464;-0.066;2024-03-25T07:23:03;9.50;;;2.57;;
60354;SDS011;46198;51.464;-0.066;2024-03-25T07:25:29;12.60;;;3.33;;
60354;SDS011;46198;51.464;-0.066;2024-03-25T07:27:56;8.57;;;2.97;;
60354;SDS011;46198;51.464;-0.066;2024-03-25T07:30:22;15.43;;;3.07;;
60354;SDS011;46198;51.464;-0.066;2024-03-25T07:32:49;10.67;;;3.37;;
60354;SDS011;46198;51.464;-0.066;2024-03-25T07:35:17;12.00;;;3.10;;
60354;SDS011;46198;51.464;-0.066;2024-03-25T07:37:44;16.10;;;2.93;;
60354;SDS011;46198;51.464;-0.066;2024-03-25T07:40:10;9.93;;;2.80;;
60354;SDS011;46198;51.464;-0.066;2024-03-25T07:42:37;8.87;;;2.97;;
60354;SDS011;46198;51.464;-0.066;2024-03-25T07:45:04;11.83;;;2.90;;
60354;SDS011;46198;51.464;-0.066;2024-03-25T07:47:31;11.03;;;3.00;;
60354;SDS011;46198;51.464;-0.066;2024-03-25T07:49:58;10.90;;;2.97;;
60354;SDS011;46198;51.464;-0.066;2024-03-25T07:52:26;10.40;;;2.93;;
60354;SDS011;46198;51.464;-0.066;2024-03-25T07:54:53;13.87;;;2.67;;
60354;SDS011;46198;51.464;-0.066;2024-03-25T07:57:19;10.97;;;2.80;;
60354;SDS011;46198;51.464;-0.066;2024-03-25T07:59:46;10.50;;;2.40;;
60354;SDS011;46198;51.464;-0.066;2024-03-25T08:02:13;7.60;;;2.50;;
60354;SDS011;46198;51.464;-0.066;2024-03-25T08:04:39;16.10;;;3.27;;
60354;SDS011;46198;51.464;-0.066;2024-03-25T08:07:05;8.80;;;2.47;;
60354;SDS011;46198;51.464;-0.066;2024-03-25T08:09:33;10.93;;;2.40;;
60354;SDS011;46198;51.464;-0.066;2024-03-25T08:12:00;11.93;;;2.63;;
60354;SDS011;46198;51.464;-0.066;2024-03-25T08:14:26;11.33;;;2.63;;
60354;SDS011;46198;51.464;-0.066;2024-03-25T08:16:52;11.07;;;2.67;;
60354;SDS011;46198;51.464;-0.066;2024-03-25T08:19:18;14.37;;;2.67;;
60354;SDS011;46198;51.464;-0.066;2024-03-25T08:21:48;9.97;;;3.00;;
60354;SDS011;46198;51.464;-0.066;2024-03-25T08:24:18;9.97;;;2.33;;
60354;SDS011;46198;51.464;-0.066;2024-03-25T08:26:45;10.30;;;3.00;;
60354;SDS011;46198;51.464;-0.066;2024-03-25T08:29:12;5.67;;;2.17;;
60354;SDS011;46198;51.464;-0.066;2024-03-25T08:31:38;7.30;;;2.10;;
60354;SDS011;46198;51.464;-0.066;2024-03-25T08:34:04;7.33;;;1.83;;
60354;SDS011;46198;51.464;-0.066;2024-03-25T08:36:31;5.10;;;2.00;;
60354;SDS011;46198;51.464;-0.066;2024-03-25T08:38:57;6.10;;;2.50;;
60354;SDS011;46198;51.464;-0.066;2024-03-25T08:41:23;7.93;;;2.72;;
60354;SDS011;46198;51.464;-0.066;2024-03-25T08:43:51;7.97;;;2.53;;
60354;SDS011;46198;51.464;-0.066;2024-03-25T08:46:18;8.70;;;1.83;;
60354;SDS011;46198;51.464;-0.066;2024-03-25T08:48:44;8.53;;;2.13;;
60354;SDS011;46198;51.464;-0.066;2024-03-25T08:51:10;7.63;;;2.50;;
60354;SDS011;46198;51.464;-0.066;2024-03-25T08:53:37;6.20;;;1.80;;
60354;SDS011;46198;51.464;-0.066;2024-03-25T08:56:03;13.73;;;2.95;;
60354;SDS011;46198;51.464;-0.066;2024-03-25T08:58:32;4.37;;;2.00;;
60354;SDS011;46198;51.464;-0.066;2024-03-25T09:01:00;7.90;;;2.10;;
60354;SDS011;46198;51.464;-0.066;2024-03-25T09:03:26;19.23;;;3.67;;
60354;SDS011;46198;51.464;-0.066;2024-03-25T09:05:53;7.27;;;2.47;;
60354;SDS011;46198;51.464;-0.066;2024-03-25T09:08:20;5.55;;;1.80;;
60354;SDS011;46198;51.464;-0.066;2024-03-25T09:10:46;9.37;;;2.70;;
60354;SDS011;46198;51.464;-0.066;2024-03-25T09:13:28;6.90;;;1.90;;
60354;SDS011;46198;51.464;-0.066;2024-03-25T09:15:55;7.93;;;1.93;;
60354;SDS011;46198;51.464;-0.066;2024-03-25T09:18:23;5.93;;;2.37;;
60354;SDS011;46198;51.464;-0.066;2024-03-25T09:20:49;9.52;;;2.00;;
60354;SDS011;46198;51.464;-0.066;2024-03-25T09:23:15;2.75;;;1.55;;
60354;SDS011;46198;51.464;-0.066;2024-03-25T09:25:50;4.63;;;1.60;;
60354;SDS011;46198;51.464;-0.066;2024-03-25T09:28:17;7.57;;;1.73;;
60354;SDS011;46198;51.464;-0.066;2024-03-25T09:30:43;8.30;;;1.93;;
60354;SDS011;46198;51.464;-0.066;2024-03-25T09:33:09;5.43;;;2.03;;
60354;SDS011;46198;51.464;-0.066;2024-03-25T09:35:37;7.37;;;2.07;;
60354;SDS011;46198;51.464;-0.066;2024-03-25T09:38:03;9.13;;;2.50;;
60354;SDS011;46198;51.464;-0.066;2024-03-25T09:40:30;6.93;;;1.90;;
60354;SDS011;46198;51.464;-0.066;2024-03-25T09:42:57;4.32;;;1.70;;
60354;SDS011;46198;51.464;-0.066;2024-03-25T09:45:27;10.10;;;2.10;;
60354;SDS011;46198;51.464;-0.066;2024-03-25T09:47:55;8.53;;;2.50;;
60354;SDS011;46198;51.464;-0.066;2024-03-25T09:50:22;4.03;;;1.70;;
60354;SDS011;46198;51.464;-0.066;2024-03-25T09:52:50;6.47;;;1.80;;
60354;SDS011;46198;51.464;-0.066;2024-03-25T09:55:16;4.00;;;1.77;;
60354;SDS011;46198;51.464;-0.066;2024-03-25T09:57:44;11.98;;;2.20;;
60354;SDS011;46198;51.464;-0.066;2024-03-25T10:00:11;7.03;;;2.23;;
60354;SDS011;46198;51.464;-0.066;2024-03-25T10:02:41;6.73;;;2.10;;
60354;SDS011;46198;51.464;-0.066;2024-03-25T10:05:08;5.67;;;2.07;;
60354;SDS011;46198;51.464;-0.066;2024-03-25T10:07:37;6.63;;;1.60;;
60354;SDS011;46198;51.464;-0.066;2024-03-25T10:10:05;9.33;;;2.13;;
60354;SDS011;46198;51.464;-0.066;2024-03-25T10:12:32;6.67;;;2.40;;
60354;SDS011;46198;51.464;-0.066;2024-03-25T10:14:59;4.00;;;1.45;;
60354;SDS011;46198;51.464;-0.066;2024-03-25T10:17:26;7.67;;;1.90;;
60354;SDS011;46198;51.464;-0.066;2024-03-25T10:19:53;5.83;;;1.90;;
60354;SDS011;46198;51.464;-0.066;2024-03-25T10:22:20;7.20;;;1.90;;
60354;SDS011;46198;51.464;-0.066;2024-03-25T10:24:46;5.57;;;2.05;;
60354;SDS011;46198;51.464;-0.066;2024-03-25T10:27:18;8.35;;;1.60;;
60354;SDS011;46198;51.464;-0.066;2024-03-25T10:29:46;6.18;;;1.52;;
60354;SDS011;46198;51.464;-0.066;2024-03-25T10:32:12;4.30;;;1.63;;
60354;SDS011;46198;51.464;-0.066;2024-03-25T10:34:42;3.85;;;1.65;;
60354;SDS011;46198;51.464;-0.066;2024-03-25T10:37:14;7.72;;;2.08;;
60354;SDS011;46198;51.464;-0.066;2024-03-25T10:39:47;5.82;;;2.33;;
60354;SDS011;46198;51.464;-0.066;2024-03-25T10:42:15;7.22;;;2.03;;
60354;SDS011;46198;51.464;-0.066;2024-03-25T10:44:46;5.55;;;1.55;;
60354;SDS011;46198;51.464;-0.066;2024-03-25T10:47:14;6.95;;;1.90;;
60354;SDS011;46198;51.464;-0.066;2024-03-25T10:49:48;6.43;;;2.13;;
60354;SDS011;46198;51.464;-0.066;2024-03-25T10:52:23;6.80;;;2.05;;
60354;SDS011;46198;51.464;-0.066;2024-03-25T10:54:50;8.98;;;2.05;;
60354;SDS011;46198;51.464;-0.066;2024-03-25T10:57:16;9.55;;;2.25;;
60354;SDS011;46198;51.464;-0.066;2024-03-25T10:59:45;3.67;;;1.40;;
60354;SDS011;46198;51.464;-0.066;2024-03-25T11:02:13;3.83;;;2.35;;
60354;SDS011;46198;51.464;-0.066;2024-03-25T11:04:41;8.38;;;2.03;;
60354;SDS011;46198;51.464;-0.066;2024-03-25T11:07:08;8.40;;;2.10;;
60354;SDS011;46198;51.464;-0.066;2024-03-25T11:09:34;4.82;;;2.30;;
60354;SDS011;46198;51.464;-0.066;2024-03-25T11:12:01;13.77;;;2.92;;
60354;SDS011;46198;51.464;-0.066;2024-03-25T11:14:28;8.43;;;2.13;;
60354;SDS011;46198;51.464;-0.066;2024-03-25T11:16:55;8.50;;;1.90;;
60354;SDS011;46198;51.464;-0.066;2024-03-25T11:19:25;11.95;;;3.35;;
60354;SDS011;46198;51.464;-0.066;2024-03-25T11:21:52;10.10;;;2.05;;
60354;SDS011;46198;51.464;-0.066;2024-03-25T11:24:26;4.72;;;1.52;;
60354;SDS011;46198;51.464;-0.066;2024-03-25T11:26:53;6.72;;;2.22;;
60354;SDS011;46198;51.464;-0.066;2024-03-25T11:29:20;11.38;;;2.13;;
60354;SDS011;46198;51.464;-0.066;2024-03-25T11:31:50;7.38;;;2.25;;
60354;SDS011;46198;51.464;-0.066;2024-03-25T11:34:19;5.55;;;1.90;;
60354;SDS011;46198;51.464;-0.066;2024-03-25T11:36:45;4.22;;;2.10;;
60354;SDS011;46198;51.464;-0.066;2024-03-25T11:39:12;8.90;;;2.60;;
60354;SDS011;46198;51.464;-0.066;2024-03-25T11:41:39;10.13;;;2.90;;
60354;SDS011;46198;51.464;-0.066;2024-03-25T11:44:06;10.00;;;2.78;;
60354;SDS011;46198;51.464;-0.066;2024-03-25T11:46:35;6.60;;;2.20;;
60354;SDS011;46198;51.464;-0.066;2024-03-25T11:49:04;7.82;;;2.40;;
60354;SDS011;46198;51.464;-0.066;2024-03-25T11:51:31;8.20;;;2.15;;
60354;SDS011;46198;51.464;-0.066;2024-03-25T11:53:58;8.75;;;2.38;;
60354;SDS011;46198;51.464;-0.066;2024-03-25T11:56:25;8.20;;;2.30;;
60354;SDS011;46198;51.464;-0.066;2024-03-25T11:58:51;6.28;;;2.10;;
60354;SDS011;46198;51.464;-0.066;2024-03-25T12:01:17;7.95;;;1.92;;
60354;SDS011;46198;51.464;-0.066;2024-03-25T12:03:44;9.57;;;2.20;;
60354;SDS011;46198;51.464;-0.066;2024-03-25T12:06:11;6.57;;;2.40;;
60354;SDS011;46198;51.464;-0.066;2024-03-25T12:08:38;7.43;;;1.85;;
60354;SDS011;46198;51.464;-0.066;2024-03-25T12:11:06;10.32;;;2.20;;
60354;SDS011;46198;51.464;-0.066;2024-03-25T12:13:44;5.35;;;2.17;;
60354;SDS011;46198;51.464;-0.066;2024-03-25T12:16:11;9.73;;;2.63;;
60354;SDS011;46198;51.464;-0.066;2024-03-25T12:18:39;7.05;;;2.55;;
60354;SDS011;46198;51.464;-0.066;2024-03-25T12:21:06;5.63;;;2.00;;
60354;SDS011;46198;51.464;-0.066;2024-03-25T12:23:34;11.88;;;2.33;;
60354;SDS011;46198;51.464;-0.066;2024-03-25T12:26:01;6.60;;;2.05;;
60354;SDS011;46198;51.464;-0.066;2024-03-25T12:28:30;4.32;;;2.05;;
60354;SDS011;46198;51.464;-0.066;2024-03-25T12:30:58;8.32;;;2.10;;
60354;SDS011;46198;51.464;-0.066;2024-03-25T12:33:24;6.45;;;2.38;;
60354;SDS011;46198;51.464;-0.066;2024-03-25T12:35:53;9.18;;;2.53;;
60354;SDS011;46198;51.464;-0.066;2024-03-25T12:38:23;7.47;;;2.40;;
60354;SDS011;46198;51.464;-0.066;2024-03-25T12:40:52;7.63;;;3.00;;
60354;SDS011;46198;51.464;-0.066;2024-03-25T12:43:20;8.82;;;2.28;;
60354;SDS011;46198;51.464;-0.066;2024-03-25T12:45:47;6.60;;;1.90;;
60354;SDS011;46198;51.464;-0.066;2024-03-25T12:48:16;7.18;;;2.25;;
60354;SDS011;46198;51.464;-0.066;2024-03-25T12:50:47;10.43;;;2.42;;
60354;SDS011;46198;51.464;-0.066;2024-03-25T12:53:16;10.05;;;2.50;;
60354;SDS011;46198;51.464;-0.066;2024-03-25T12:55:43;12.63;;;3.03;;
60354;SDS011;46198;51.464;-0.066;2024-03-25T12:58:13;8.18;;;2.00;;
60354;SDS011;46198;51.464;-0.066;2024-03-25T13:00:40;8.63;;;2.45;;
60354;SDS011;46198;51.464;-0.066;2024-03-25T13:03:08;5.35;;;2.10;;
60354;SDS011;46198;51.464;-0.066;2024-03-25T13:05:42;8.65;;;2.33;;
60354;SDS011;46198;51.464;-0.066;2024-03-25T13:08:11;8.48;;;2.30;;
60354;SDS011;46198;51.464;-0.066;2024-03-25T13:10:38;9.45;;;2.50;;
60354;SDS011;46198;51.464;-0.066;2024-03-25T13:13:06;6.68;;;2.30;;
60354;SDS011;46198;51.464;-0.066;2024-03-25T13:15:37;8.25;;;1.90;;
60354;SDS011;46198;51.464;-0.066;2024-03-25T13:18:04;10.15;;;1.98;;
60354;SDS011;46198;51.464;-0.066;2024-03-25T13:20:31;8.45;;;2.20;;
60354;SDS011;46198;51.464;-0.066;2024-03-25T13:22:58;12.45;;;2.30;;
60354;SDS011;46198;51.464;-0.066;2024-03-25T13:25:24;7.30;;;2.25;;
60354;SDS011;46198;51.464;-0.066;2024-03-25T13:27:51;11.70;;;2.03;;
60354;SDS011;46198;51.464;-0.066;2024-03-25T13:30:18;11.30;;;2.33;;
60354;SDS011;46198;51.464;-0.066;2024-03-25T13:32:47;7.78;;;2.20;;
60354;SDS011;46198;51.464;-0.066;2024-03-25T13:35:14;8.00;;;2.60;;
60354;SDS011;46198;51.464;-0.066;2024-03-25T13:37:43;5.97;;;2.17;;
60354;SDS011;46198;51.464;-0.066;2024-03-25T13:40:10;6.78;;;2.22;;
60354;SDS011;46198;51.464;-0.066;2024-03-25T13:42:37;6.82;;;2.65;;
60354;SDS011;46198;51.464;-0.066;2024-03-25T13:45:04;10.13;;;2.00;;
60354;SDS011;46198;51.464;-0.066;2024-03-25T13:47:31;6.32;;;2.83;;
60354;SDS011;46198;51.464;-0.066;2024-03-25T13:50:02;9.60;;;2.38;;
60354;SDS011;46198;51.464;-0.066;2024-03-25T13:52:31;6.88;;;2.35;;
60354;SDS011;46198;51.464;-0.066;2024-03-25T13:55:01;10.55;;;2.30;;
60354;SDS011;46198;51.464;-0.066;2024-03-25T13:57:28;5.05;;;2.38;;
60354;SDS011;46198;51.464;-0.066;2024-03-25T13:59:54;7.85;;;2.15;;
60354;SDS011;46198;51.464;-0.066;2024-03-25T14:02:20;6.15;;;2.10;;
60354;SDS011;46198;51.464;-0.066;2024-03-25T14:04:47;7.03;;;2.38;;
60354;SDS011;46198;51.464;-0.066;2024-03-25T14:07:14;9.10;;;2.42;;
60354;SDS011;46198;51.464;-0.066;2024-03-25T14:09:44;4.90;;;1.95;;
60354;SDS011;46198;51.464;-0.066;2024-03-25T14:12:10;5.97;;;2.33;;
60354;SDS011;46198;51.464;-0.066;2024-03-25T14:14:37;4.70;;;1.83;;
60354;SDS011;46198;51.464;-0.066;2024-03-25T14:17:04;8.48;;;2.67;;
60354;SDS011;46198;51.464;-0.066;2024-03-25T14:19:31;7.65;;;2.42;;
60354;SDS011;46198;51.464;-0.066;2024-03-25T14:21:57;7.60;;;1.33;;
60354;SDS011;46198;51.464;-0.066;2024-03-25T14:24:25;9.05;;;2.17;;
60354;SDS011;46198;51.464;-0.066;2024-03-25T14:26:51;5.50;;;1.52;;
60354;SDS011;46198;51.464;-0.066;2024-03-25T14:29:18;6.35;;;1.90;;